createdAt,value
2022-08-09T00:00:11.394Z,1.6
2022-08-09T00:01:14.410Z,1.7
2022-08-09T00:02:13.079Z,1.6
2022-08-09T00:04:10.028Z,1.4
2022-08-09T00:04:34.103Z,1.8
2022-08-09T00:06:17.291Z,1.8
2022-08-09T00:06:22.738Z,1.9
2022-08-09T00:07:20.964Z,1.5
2022-08-09T00:08:32.072Z,1.7
2022-08-09T00:09:24.033Z,2.0
2022-08-09T00:10:25.449Z,2.0
2022-08-09T00:11:27.645Z,1.7
2022-08-09T00:12:29.811Z,1.5
2022-08-09T00:13:31.732Z,1.9
2022-08-09T00:14:38.182Z,1.9
2022-08-09T00:15:57.528Z,1.4
2022-08-09T00:16:36.691Z,1.6
2022-08-09T00:18:07.713Z,1.7
2022-08-09T00:18:37.652Z,1.8
2022-08-09T00:19:38.341Z,2.1
2022-08-09T00:20:42.578Z,1.9
2022-08-09T00:21:56.237Z,1.6
2022-08-09T00:22:43.107Z,2.0
2022-08-09T00:23:55.160Z,1.8
2022-08-09T00:24:46.283Z,1.8
2022-08-09T00:25:51.833Z,2.0
2022-08-09T00:26:49.394Z,2.2
2022-08-09T00:27:49.989Z,2.2
2022-08-09T00:28:52.441Z,2.0
2022-08-09T00:30:16.284Z,2.1
2022-08-09T00:30:52.802Z,2.0
2022-08-09T00:31:59.150Z,1.9
2022-08-09T00:32:55.001Z,1.7
2022-08-09T00:33:55.590Z,1.7
2022-08-09T00:34:56.180Z,2.1
2022-08-09T00:35:56.793Z,1.8
2022-08-09T00:36:58.381Z,1.8
2022-08-09T00:37:59.404Z,1.9
2022-08-09T00:39:00.995Z,2.4
2022-08-09T00:40:13.629Z,2.0
2022-08-09T00:41:05.310Z,2.0
2022-08-09T00:44:10.787Z,2.3
2022-08-09T00:44:14.161Z,1.9
2022-08-09T00:44:26.590Z,2.1
2022-08-09T00:45:15.835Z,2.3
2022-08-09T00:46:14.498Z,1.8
2022-08-09T00:47:15.357Z,1.6
2022-08-09T00:48:15.537Z,2.0
2022-08-09T00:49:16.879Z,2.1
2022-08-09T00:50:18.467Z,1.8
2022-08-09T00:51:19.064Z,1.9
2022-08-09T00:52:19.912Z,2.1
2022-08-09T00:53:24.419Z,2.2
2022-08-09T00:54:22.235Z,2.3
2022-08-09T00:56:03.126Z,2.0
2022-08-09T00:56:24.410Z,1.8
2022-08-09T00:57:33.839Z,2.4
2022-08-09T00:58:27.855Z,2.2
2022-08-09T00:59:31.646Z,2.4
2022-08-09T01:00:29.944Z,1.9
2022-08-09T01:01:32.450Z,1.9
2022-08-09T01:02:32.325Z,2.1
2022-08-09T01:03:32.823Z,2.1
2022-08-09T01:04:34.326Z,2.1
2022-08-09T01:05:53.598Z,2.2
2022-08-09T01:06:54.877Z,2.3
2022-08-09T01:07:59.902Z,2.5
2022-08-09T01:08:38.958Z,2.4
2022-08-09T01:09:40.546Z,2.0
2022-08-09T01:10:41.142Z,2.6
2022-08-09T01:11:53.253Z,2.5
2022-08-09T01:12:44.321Z,2.4
2022-08-09T01:13:58.530Z,2.3
2022-08-09T01:14:46.986Z,2.0
2022-08-09T01:15:52.587Z,2.4
2022-08-09T01:16:50.161Z,2.2
2022-08-09T01:17:51.965Z,2.1
2022-08-09T01:19:01.991Z,2.4
2022-08-09T01:20:02.484Z,3.2
2022-08-09T01:20:56.518Z,2.7
2022-08-09T01:21:57.111Z,2.3
2022-08-09T01:22:58.699Z,2.8
2022-08-09T01:24:02.237Z,2.5
2022-08-09T01:25:01.875Z,2.5
2022-08-09T01:26:03.322Z,2.6
2022-08-09T01:27:03.919Z,2.5
2022-08-09T01:28:04.529Z,2.6
2022-08-09T01:29:05.338Z,2.4
2022-08-09T01:30:06.079Z,2.5
2022-08-09T01:31:07.666Z,2.3
2022-08-09T01:32:32.446Z,2.4
2022-08-09T01:33:09.974Z,2.2
2022-08-09T01:34:10.724Z,2.5
2022-08-09T01:35:37.174Z,2.8
2022-08-09T01:36:13.534Z,2.7
2022-08-09T01:37:14.203Z,2.9
2022-08-09T01:38:15.937Z,2.9
2022-08-09T01:39:16.536Z,2.6
2022-08-09T01:40:23.322Z,2.6
2022-08-09T01:41:18.724Z,2.3
2022-08-09T01:42:20.312Z,2.6
2022-08-09T01:43:21.841Z,2.8
2022-08-09T01:44:23.426Z,2.7
2022-08-09T01:45:24.074Z,3.2
2022-08-09T01:46:26.769Z,2.9
2022-08-09T01:47:26.260Z,3.1
2022-08-09T01:48:29.685Z,2.4
2022-08-09T01:49:38.848Z,2.8
2022-08-09T01:50:37.223Z,2.4
2022-08-09T01:51:33.098Z,2.7
2022-08-09T01:52:33.784Z,3.1
2022-08-09T01:53:40.997Z,3.6
2022-08-09T01:54:35.997Z,2.7
2022-08-09T01:55:37.063Z,3.3
2022-08-09T01:56:38.684Z,3.2
2022-08-09T01:57:39.886Z,3.3
2022-08-09T01:58:40.837Z,3.0
2022-08-09T01:59:51.806Z,3.2
2022-08-09T02:00:43.042Z,3.5
2022-08-09T02:01:58.113Z,3.2
2022-08-09T02:02:46.199Z,2.9
2022-08-09T02:03:46.797Z,3.2
2022-08-09T02:04:47.832Z,3.1
2022-08-09T02:06:03.878Z,3.0
2022-08-09T02:06:54.380Z,3.1
2022-08-09T02:08:39.062Z,3.1
2022-08-09T02:08:58.769Z,3.2
2022-08-09T02:09:59.622Z,3.2
2022-08-09T02:10:57.362Z,3.0
2022-08-09T02:11:58.017Z,3.8
2022-08-09T02:12:59.026Z,3.3
2022-08-09T02:14:06.609Z,3.0
2022-08-09T02:15:01.327Z,3.2
2022-08-09T02:16:01.924Z,3.2
2022-08-09T02:17:59.535Z,3.5
2022-08-09T02:18:10.164Z,3.7
2022-08-09T02:19:05.696Z,3.1
2022-08-09T02:20:06.293Z,3.8
2022-08-09T02:21:06.914Z,2.9
2022-08-09T02:22:08.265Z,3.5
2022-08-09T02:23:08.885Z,3.3
2022-08-09T02:24:09.472Z,3.8
2022-08-09T02:25:10.065Z,3.5
2022-08-09T02:26:26.916Z,3.3
2022-08-09T02:27:13.242Z,3.5
2022-08-09T02:28:17.881Z,3.0
2022-08-09T02:29:16.419Z,3.6
2022-08-09T02:30:17.014Z,3.4
2022-08-09T02:31:18.605Z,3.4
2022-08-09T02:32:19.197Z,3.7
2022-08-09T02:33:19.791Z,3.5
2022-08-09T02:34:40.738Z,3.9
2022-08-09T02:35:46.344Z,3.9
2022-08-09T02:36:26.268Z,3.7
2022-08-09T02:37:31.820Z,4.0
2022-08-09T02:38:28.857Z,3.7
2022-08-09T02:39:33.647Z,4.1
2022-08-09T02:40:30.971Z,4.0
2022-08-09T02:41:31.519Z,3.9
2022-08-09T02:42:33.459Z,3.7
2022-08-09T02:43:53.886Z,4.0
2022-08-09T02:44:35.713Z,3.3
2022-08-09T02:45:36.493Z,3.4
2022-08-09T02:46:37.106Z,3.9
2022-08-09T02:47:57.156Z,3.9
2022-08-09T02:48:40.230Z,3.7
2022-08-09T02:49:41.817Z,3.7
2022-08-09T02:50:42.414Z,3.8
2022-08-09T02:51:43.024Z,3.6
2022-08-09T02:52:43.679Z,4.1
2022-08-09T02:54:00.785Z,4.4
2022-08-09T02:54:51.117Z,3.8
2022-08-09T02:55:58.238Z,4.5
2022-08-09T02:56:51.548Z,3.4
2022-08-09T02:58:00.104Z,3.9
2022-08-09T02:58:52.181Z,3.9
2022-08-09T03:00:21.607Z,4.7
2022-08-09T03:00:58.397Z,4.1
2022-08-09T03:02:06.398Z,3.8
2022-08-09T03:02:59.947Z,4.6
2022-08-09T03:04:16.628Z,4.4
2022-08-09T03:05:00.720Z,4.5
2022-08-09T03:06:01.335Z,4.4
2022-08-09T03:07:12.197Z,4.0
2022-08-09T03:08:03.518Z,4.3
2022-08-09T03:09:04.930Z,4.6
2022-08-09T03:10:06.478Z,4.3
2022-08-09T03:11:07.073Z,4.3
2022-08-09T03:12:11.369Z,4.9
2022-08-09T03:13:09.978Z,4.5
2022-08-09T03:14:10.153Z,4.9
2022-08-09T03:15:10.776Z,4.3
2022-08-09T03:16:11.371Z,4.5
2022-08-09T03:17:16.477Z,5.2
2022-08-09T03:18:13.555Z,4.6
2022-08-09T03:19:52.749Z,4.2
2022-08-09T03:20:16.731Z,4.4
2022-08-09T03:21:17.328Z,4.9
2022-08-09T03:22:24.969Z,4.4
2022-08-09T03:23:24.404Z,4.3
2022-08-09T03:24:31.322Z,4.8
2022-08-09T03:25:26.650Z,4.6
2022-08-09T03:26:31.888Z,4.3
2022-08-09T03:27:25.867Z,5.0
2022-08-09T03:28:26.505Z,4.6
2022-08-09T03:29:27.071Z,4.5
2022-08-09T03:30:33.599Z,5.2
2022-08-09T03:31:30.250Z,5.2
2022-08-09T03:32:32.121Z,4.8
2022-08-09T03:33:53.416Z,5.0
2022-08-09T03:34:34.400Z,4.9
2022-08-09T03:36:13.570Z,5.0
2022-08-09T03:36:36.587Z,4.3
2022-08-09T03:37:55.982Z,5.4
2022-08-09T03:38:41.961Z,4.3
2022-08-09T03:39:40.430Z,4.7
2022-08-09T03:40:41.950Z,4.9
2022-08-09T03:41:46.026Z,4.9
2022-08-09T03:42:44.137Z,4.7
2022-08-09T03:43:51.797Z,4.8
2022-08-09T03:44:46.327Z,5.1
2022-08-09T03:46:03.949Z,5.5
2022-08-09T03:46:48.517Z,5.0
2022-08-09T03:47:49.211Z,5.4
2022-08-09T03:48:51.235Z,4.7
2022-08-09T03:49:58.416Z,6.1
2022-08-09T03:50:52.993Z,4.7
2022-08-09T03:51:58.437Z,5.5
2022-08-09T03:52:55.186Z,5.3
2022-08-09T03:53:56.779Z,5.6
2022-08-09T03:54:58.370Z,5.8
2022-08-09T03:55:58.968Z,5.6
2022-08-09T03:56:59.569Z,5.3
2022-08-09T03:58:14.638Z,5.6
2022-08-09T03:59:01.761Z,5.3
2022-08-09T04:00:03.354Z,5.3
2022-08-09T04:01:04.012Z,5.6
2022-08-09T04:02:05.380Z,5.7
2022-08-09T04:03:06.998Z,5.5
2022-08-09T04:04:14.513Z,5.6
2022-08-09T04:05:27.444Z,5.9
2022-08-09T04:06:11.848Z,5.8
2022-08-09T04:07:12.351Z,5.7
2022-08-09T04:08:13.946Z,5.6
2022-08-09T04:09:48.277Z,6.1
2022-08-09T04:10:20.301Z,5.5
2022-08-09T04:11:18.727Z,5.7
2022-08-09T04:12:31.022Z,6.1
2022-08-09T04:13:26.088Z,6.5
2022-08-09T04:14:54.218Z,6.5
2022-08-09T04:15:50.379Z,5.6
2022-08-09T04:16:25.705Z,6.8
2022-08-09T04:17:26.526Z,6.2
2022-08-09T04:18:28.211Z,6.2
2022-08-09T04:19:30.258Z,5.9
2022-08-09T04:20:30.331Z,6.2
2022-08-09T04:21:36.289Z,6.1
2022-08-09T04:22:33.680Z,6.5
2022-08-09T04:23:34.359Z,6.9
2022-08-09T04:24:34.949Z,6.3
2022-08-09T04:25:35.564Z,6.7
2022-08-09T04:26:38.116Z,5.6
2022-08-09T04:27:38.755Z,6.1
2022-08-09T04:28:42.338Z,6.4
2022-08-09T04:29:49.997Z,6.4
2022-08-09T04:30:44.987Z,6.5
2022-08-09T04:31:46.764Z,6.1
2022-08-09T04:32:47.691Z,6.3
2022-08-09T04:33:56.852Z,6.5
2022-08-09T04:34:54.341Z,6.5
2022-08-09T04:35:51.508Z,6.8
2022-08-09T04:36:52.115Z,7.1
2022-08-09T04:37:53.164Z,5.9
2022-08-09T04:38:54.074Z,6.6
2022-08-09T04:39:54.657Z,6.2
2022-08-09T04:40:57.145Z,6.7
2022-08-09T04:41:57.148Z,6.3
2022-08-09T04:42:58.744Z,5.9
2022-08-09T04:44:06.328Z,6.0
2022-08-09T04:45:00.941Z,6.5
2022-08-09T04:46:01.542Z,6.0
2022-08-09T04:47:04.302Z,5.6
2022-08-09T04:48:07.966Z,4.9
2022-08-09T04:49:05.331Z,5.5
2022-08-09T04:50:05.932Z,5.6
2022-08-09T04:51:07.527Z,5.2
2022-08-09T04:52:09.702Z,5.6
2022-08-09T04:53:11.599Z,5.8
2022-08-09T04:54:11.338Z,5.8
2022-08-09T04:55:13.340Z,5.9
2022-08-09T04:56:14.471Z,5.9
2022-08-09T04:57:16.075Z,6.1
2022-08-09T04:58:17.658Z,6.2
2022-08-09T04:59:18.695Z,6.4
2022-08-09T05:00:20.290Z,6.8
2022-08-09T05:01:20.908Z,6.3
2022-08-09T05:02:22.501Z,6.5
2022-08-09T05:03:40.498Z,6.9
2022-08-09T05:04:31.033Z,7.4
2022-08-09T05:05:32.319Z,6.8
2022-08-09T05:06:29.801Z,6.6
2022-08-09T05:07:32.032Z,6.0
2022-08-09T05:08:31.077Z,6.4
2022-08-09T05:09:42.087Z,6.2
2022-08-09T05:10:33.272Z,5.5
2022-08-09T05:11:35.301Z,6.4
2022-08-09T05:12:36.661Z,6.6
2022-08-09T05:13:38.659Z,5.4
2022-08-09T05:14:41.138Z,6.2
2022-08-09T05:15:47.630Z,6.2
2022-08-09T05:16:43.432Z,6.0
2022-08-09T05:18:50.851Z,5.8
2022-08-09T05:18:57.779Z,5.8
2022-08-09T05:19:46.588Z,5.9
2022-08-09T05:20:47.188Z,5.0
2022-08-09T05:21:55.733Z,5.9
2022-08-09T05:23:55.291Z,4.9
2022-08-09T05:24:00.403Z,5.9
2022-08-09T05:24:52.572Z,4.9
2022-08-09T05:25:54.168Z,5.3
2022-08-09T05:26:55.761Z,5.6
2022-08-09T05:27:56.944Z,6.3
2022-08-09T05:28:57.546Z,5.8
2022-08-09T05:29:59.076Z,5.5
2022-08-09T05:30:58.977Z,5.1
2022-08-09T05:31:59.576Z,5.2
2022-08-09T05:33:00.180Z,5.2
2022-08-09T05:34:01.775Z,5.0
2022-08-09T05:35:02.473Z,5.3
2022-08-09T05:36:03.074Z,5.1
2022-08-09T05:37:05.231Z,4.6
2022-08-09T05:38:04.541Z,4.4
2022-08-09T05:39:05.193Z,4.3
2022-08-09T05:40:06.777Z,3.9
2022-08-09T05:41:07.350Z,3.6
2022-08-09T05:42:08.943Z,3.5
2022-08-09T05:43:09.545Z,2.9
2022-08-09T05:44:10.146Z,3.0
2022-08-09T05:45:10.760Z,3.5
2022-08-09T05:46:12.354Z,3.2
2022-08-09T05:47:12.953Z,2.1
2022-08-09T05:48:13.665Z,2.2
2022-08-09T05:50:15.580Z,2.3
2022-08-09T05:50:35.076Z,1.6
2022-08-09T05:51:42.974Z,2.1
2022-08-09T05:52:20.043Z,1.9
2022-08-09T05:53:31.978Z,2.3
2022-08-09T05:54:22.253Z,2.0
2022-08-09T05:55:24.205Z,1.9
2022-08-09T05:56:25.789Z,2.1
2022-08-09T05:57:51.296Z,1.9
2022-08-09T05:58:27.137Z,1.7
2022-08-09T05:59:27.739Z,1.9
2022-08-09T06:00:29.550Z,1.6
2022-08-09T06:01:33.978Z,1.3
2022-08-09T06:02:30.322Z,1.6
2022-08-09T06:03:34.845Z,1.7
2022-08-09T06:04:35.060Z,1.5
2022-08-09T06:05:58.126Z,1.7
2022-08-09T06:06:36.550Z,2.1
2022-08-09T06:07:38.153Z,1.9
2022-08-09T06:08:38.765Z,1.9
2022-08-09T06:09:54.417Z,1.5
2022-08-09T06:10:40.930Z,1.9
2022-08-09T06:11:57.434Z,2.3
2022-08-09T06:12:43.125Z,1.9
2022-08-09T06:13:43.731Z,2.1
2022-08-09T06:14:45.529Z,1.7
2022-08-09T06:15:46.893Z,1.8
2022-08-09T06:16:52.366Z,2.0
2022-08-09T06:17:49.275Z,2.1
2022-08-09T06:18:50.871Z,1.9
2022-08-09T06:19:51.490Z,1.8
2022-08-09T06:20:56.465Z,1.1
2022-08-09T06:21:58.939Z,1.6
2022-08-09T06:22:55.279Z,1.6
2022-08-09T06:24:01.385Z,2.1
2022-08-09T06:24:57.489Z,1.6
2022-08-09T06:25:58.091Z,1.7
2022-08-09T06:26:59.686Z,1.8
2022-08-09T06:28:00.287Z,1.8
2022-08-09T06:29:05.413Z,1.9
2022-08-09T06:30:08.840Z,2.0
2022-08-09T06:31:05.072Z,1.7
2022-08-09T06:32:08.515Z,1.8
2022-08-09T06:33:30.528Z,1.6
2022-08-09T06:34:07.884Z,1.7
2022-08-09T06:35:09.478Z,2.0
2022-08-09T06:36:13.661Z,1.8
2022-08-09T06:37:11.862Z,1.8
2022-08-09T06:38:12.465Z,1.6
2022-08-09T06:39:14.147Z,1.7
2022-08-09T06:40:23.861Z,1.8
2022-08-09T06:41:19.048Z,2.0
2022-08-09T06:42:19.737Z,1.4
2022-08-09T06:43:20.440Z,1.5
2022-08-09T06:44:21.211Z,1.2
2022-08-09T06:46:04.708Z,1.6
2022-08-09T06:46:40.219Z,1.2
2022-08-09T06:47:24.089Z,1.5
2022-08-09T06:48:30.424Z,1.3
2022-08-09T06:49:45.155Z,1.6
2022-08-09T06:50:27.823Z,1.6
2022-08-09T06:51:29.420Z,1.4
2022-08-09T06:52:31.200Z,1.6
2022-08-09T06:53:33.333Z,1.3
2022-08-09T06:54:34.104Z,1.5
2022-08-09T06:55:34.703Z,1.3
2022-08-09T06:56:35.325Z,1.4
2022-08-09T06:58:01.880Z,1.3
2022-08-09T07:00:47.519Z,1.5
2022-08-09T07:00:50.474Z,1.4
2022-08-09T07:00:52.320Z,1.5
2022-08-09T07:01:53.620Z,1.1
2022-08-09T07:02:42.979Z,1.0
2022-08-09T07:03:51.815Z,1.2
2022-08-09T07:04:46.131Z,1.1
2022-08-09T07:05:58.619Z,1.3
2022-08-09T07:06:48.327Z,2.1
2022-08-09T07:08:00.932Z,1.3
2022-08-09T07:08:49.828Z,1.3
2022-08-09T07:09:55.013Z,1.6
2022-08-09T07:10:51.965Z,1.6
2022-08-09T07:11:53.630Z,1.4
2022-08-09T07:12:57.447Z,1.2
2022-08-09T07:14:05.223Z,1.6
2022-08-09T07:14:57.461Z,1.8
2022-08-09T07:16:42.046Z,1.4
2022-08-09T07:16:59.676Z,1.5
2022-08-09T07:18:02.550Z,1.2
2022-08-09T07:19:01.876Z,1.6
2022-08-09T07:20:02.540Z,1.4
2022-08-09T07:21:03.099Z,1.6
2022-08-09T07:22:04.694Z,1.2
2022-08-09T07:23:18.153Z,1.5
2022-08-09T07:24:06.891Z,1.4
2022-08-09T07:25:09.827Z,1.7
2022-08-09T07:26:09.089Z,1.5
2022-08-09T07:27:11.080Z,1.4
2022-08-09T07:28:10.315Z,1.4
2022-08-09T07:29:13.508Z,1.9
2022-08-09T07:30:12.530Z,1.4
2022-08-09T07:31:13.184Z,1.6
2022-08-09T07:32:13.802Z,2.1
2022-08-09T07:33:16.432Z,1.6
2022-08-09T07:34:20.352Z,1.4
2022-08-09T07:35:17.600Z,1.4
2022-08-09T07:36:19.196Z,1.5
2022-08-09T07:37:19.796Z,1.3
2022-08-09T07:38:21.392Z,1.3
2022-08-09T07:39:40.516Z,1.5
2022-08-09T07:40:26.903Z,1.1
2022-08-09T07:41:26.180Z,1.5
2022-08-09T07:42:32.815Z,1.4
2022-08-09T07:43:29.138Z,1.5
2022-08-09T07:44:32.978Z,1.8
2022-08-09T07:45:38.027Z,2.0
2022-08-09T07:46:31.951Z,1.9
2022-08-09T07:47:49.460Z,1.8
2022-08-09T07:48:34.298Z,1.6
2022-08-09T07:49:35.582Z,1.7
2022-08-09T07:50:37.176Z,2.2
2022-08-09T07:52:05.213Z,2.0
2022-08-09T07:52:40.552Z,2.1
2022-08-09T07:54:07.073Z,1.7
2022-08-09T07:54:43.563Z,1.9
2022-08-09T07:56:03.659Z,2.0
2022-08-09T07:56:48.947Z,2.0
2022-08-09T07:57:48.353Z,1.9
2022-08-09T07:58:48.967Z,1.9
2022-08-09T07:59:58.543Z,1.8
2022-08-09T08:00:56.119Z,2.0
2022-08-09T08:01:53.022Z,1.8
2022-08-09T08:02:54.040Z,1.9
2022-08-09T08:03:54.648Z,1.8
2022-08-09T08:04:55.247Z,1.9
2022-08-09T08:05:58.208Z,2.2
2022-08-09T08:07:00.290Z,1.8
2022-08-09T08:09:00.981Z,2.4
2022-08-09T08:09:04.962Z,1.9
2022-08-09T08:10:08.857Z,1.6
2022-08-09T08:12:09.274Z,1.5
2022-08-09T08:12:10.351Z,1.5
2022-08-09T08:13:06.659Z,2.1
2022-08-09T08:14:08.114Z,1.6
2022-08-09T08:15:09.422Z,2.1
2022-08-09T08:16:31.676Z,1.9
2022-08-09T08:17:35.016Z,2.0
2022-08-09T08:18:14.406Z,1.8
2022-08-09T08:19:15.161Z,1.8
2022-08-09T08:20:15.779Z,1.8
2022-08-09T08:21:16.713Z,1.5
2022-08-09T08:22:17.316Z,1.6
2022-08-09T08:23:18.017Z,1.9
2022-08-09T08:24:18.552Z,1.9
2022-08-09T08:25:19.895Z,1.8
2022-08-09T08:26:26.683Z,1.9
2022-08-09T08:27:22.093Z,2.0
2022-08-09T08:28:32.175Z,1.9
2022-08-09T08:29:27.910Z,2.3
2022-08-09T08:30:26.885Z,2.2
2022-08-09T08:31:39.363Z,2.1
2022-08-09T08:32:30.077Z,2.1
2022-08-09T08:33:40.551Z,1.9
2022-08-09T08:34:33.776Z,1.8
2022-08-09T08:35:58.130Z,1.8
2022-08-09T08:36:35.467Z,1.9
2022-08-09T08:37:41.536Z,1.9
2022-08-09T08:38:38.658Z,1.7
2022-08-09T08:39:43.737Z,2.0
2022-08-09T08:40:40.872Z,2.2
2022-08-09T08:41:50.327Z,1.8
2022-08-09T08:42:47.106Z,1.4
2022-08-09T08:43:44.853Z,2.3
2022-08-09T08:44:46.305Z,1.6
2022-08-09T08:45:51.398Z,1.9
2022-08-09T08:47:00.013Z,1.6
2022-08-09T08:47:50.127Z,1.7
2022-08-09T08:48:53.919Z,2.0
2022-08-09T08:49:54.484Z,2.1
2022-08-09T08:50:54.915Z,1.9
2022-08-09T08:52:00.433Z,1.7
2022-08-09T08:53:00.275Z,1.6
2022-08-09T08:54:03.765Z,1.8
2022-08-09T08:55:01.302Z,1.9
2022-08-09T08:56:01.287Z,1.5
2022-08-09T08:57:02.884Z,2.0
2022-08-09T08:58:04.479Z,1.7
2022-08-09T08:59:07.899Z,2.6
2022-08-09T09:00:12.704Z,2.3
2022-08-09T09:01:19.567Z,1.9
2022-08-09T09:02:10.906Z,1.8
2022-08-09T09:03:25.266Z,1.7
2022-08-09T09:04:14.069Z,1.8
2022-08-09T09:05:15.143Z,2.1
2022-08-09T09:06:15.759Z,2.2
2022-08-09T09:07:16.363Z,1.8
2022-08-09T09:08:30.180Z,1.5
2022-08-09T09:09:21.169Z,2.0
2022-08-09T09:10:20.159Z,1.3
2022-08-09T09:11:20.765Z,1.5
2022-08-09T09:12:21.814Z,1.3
2022-08-09T09:13:22.389Z,1.3
2022-08-09T09:14:23.705Z,1.7
2022-08-09T09:15:28.620Z,1.6
2022-08-09T09:16:30.964Z,1.5
2022-08-09T09:17:48.177Z,1.6
2022-08-09T09:18:29.246Z,1.4
2022-08-09T09:19:40.937Z,1.2
2022-08-09T09:20:31.324Z,1.6
2022-08-09T09:21:32.921Z,1.3
2022-08-09T09:22:34.621Z,1.3
2022-08-09T09:23:37.793Z,1.7
2022-08-09T09:24:37.762Z,1.8
2022-08-09T09:26:01.002Z,1.9
2022-08-09T09:26:38.235Z,1.7
2022-08-09T09:28:05.246Z,2.0
2022-08-09T09:29:03.440Z,1.8
2022-08-09T09:30:08.383Z,2.0
2022-08-09T09:30:42.738Z,1.9
2022-08-09T09:32:03.605Z,1.7
2022-08-09T09:32:45.867Z,1.8
2022-08-09T09:33:46.456Z,1.5
2022-08-09T09:34:48.055Z,1.7
2022-08-09T09:35:49.648Z,1.8
2022-08-09T09:36:53.917Z,1.7
2022-08-09T09:37:52.854Z,1.6
2022-08-09T09:38:53.447Z,1.8
2022-08-09T09:39:57.202Z,1.5
2022-08-09T09:40:55.651Z,1.7
2022-08-09T09:41:56.263Z,1.8
2022-08-09T09:42:57.797Z,1.6
2022-08-09T09:44:10.846Z,1.7
2022-08-09T09:45:00.009Z,1.8
2022-08-09T09:47:02.514Z,1.8
2022-08-09T09:48:03.326Z,1.4
2022-08-09T09:49:04.923Z,1.6
2022-08-09T09:50:14.581Z,2.0
2022-08-09T09:51:11.707Z,1.7
2022-08-09T09:52:33.531Z,1.7
2022-08-09T09:53:11.310Z,1.7
2022-08-09T09:54:20.994Z,1.6
2022-08-09T09:55:16.276Z,1.5
2022-08-09T09:56:20.172Z,1.4
2022-08-09T09:58:03.516Z,1.8
2022-08-09T09:58:20.119Z,2.1
2022-08-09T09:59:20.890Z,1.9
2022-08-09T10:00:22.485Z,2.0
2022-08-09T10:01:37.233Z,2.2
2022-08-09T10:02:25.679Z,1.9
2022-08-09T10:03:26.317Z,1.8
2022-08-09T10:04:30.895Z,1.7
2022-08-09T10:06:00.705Z,1.6
2022-08-09T10:06:32.265Z,2.3
2022-08-09T10:07:32.800Z,1.9
2022-08-09T10:08:43.078Z,2.2
2022-08-09T10:09:35.367Z,2.0
2022-08-09T10:10:36.962Z,1.6
2022-08-09T10:12:11.891Z,2.0
2022-08-09T10:12:43.966Z,1.6
2022-08-09T10:13:45.161Z,1.8
2022-08-09T10:14:47.653Z,1.8
2022-08-09T10:16:08.859Z,2.0
2022-08-09T10:16:57.935Z,1.9
2022-08-09T10:17:55.795Z,1.7
2022-08-09T10:18:51.245Z,1.8
2022-08-09T10:19:53.030Z,2.1
2022-08-09T10:20:52.936Z,1.9
2022-08-09T10:21:53.540Z,2.0
2022-08-09T10:22:58.478Z,2.1
2022-08-09T10:23:55.739Z,2.2
2022-08-09T10:24:56.341Z,1.7
2022-08-09T10:26:07.072Z,2.1
2022-08-09T10:26:58.543Z,1.9
2022-08-09T10:27:59.163Z,2.0
2022-08-09T10:29:33.699Z,2.0
2022-08-09T10:30:18.028Z,1.9
2022-08-09T10:33:08.102Z,2.1
2022-08-09T10:34:32.930Z,2.1
2022-08-09T10:35:09.764Z,1.8
2022-08-09T10:36:12.247Z,1.6
2022-08-09T10:37:13.950Z,2.0
2022-08-09T10:38:34.006Z,2.3
2022-08-09T10:39:18.199Z,1.9
2022-08-09T10:40:33.268Z,1.9
2022-08-09T10:41:17.838Z,2.2
2022-08-09T10:42:18.521Z,2.2
2022-08-09T10:43:19.112Z,2.0
2022-08-09T10:44:21.612Z,1.8
2022-08-09T10:45:20.777Z,2.4
2022-08-09T10:46:26.678Z,2.3
2022-08-09T10:48:19.381Z,2.3
2022-08-09T10:48:30.397Z,2.4
2022-08-09T10:49:50.150Z,1.9
2022-08-09T10:50:31.079Z,1.8
2022-08-09T10:51:40.808Z,2.7
2022-08-09T10:52:32.205Z,2.1
2022-08-09T10:53:37.987Z,2.2
2022-08-09T10:54:34.176Z,2.1
2022-08-09T10:55:58.147Z,2.2
2022-08-09T10:56:37.373Z,2.2
2022-08-09T10:57:38.025Z,1.7
2022-08-09T10:58:39.585Z,1.7
2022-08-09T10:59:43.042Z,2.0
2022-08-09T11:01:10.952Z,2.1
2022-08-09T11:03:06.759Z,2.1
2022-08-09T11:03:27.582Z,2.5
2022-08-09T11:03:51.399Z,2.1
2022-08-09T11:04:55.559Z,1.9
2022-08-09T11:05:59.959Z,1.7
2022-08-09T11:06:52.362Z,1.7
2022-08-09T11:07:57.693Z,1.6
2022-08-09T11:08:59.728Z,1.8
2022-08-09T11:09:59.795Z,1.6
2022-08-09T11:11:00.881Z,1.8
2022-08-09T11:12:00.352Z,1.9
2022-08-09T11:13:01.950Z,2.0
2022-08-09T11:14:03.548Z,1.8
2022-08-09T11:15:04.171Z,1.8
2022-08-09T11:16:06.991Z,2.1
2022-08-09T11:17:07.363Z,2.0
2022-08-09T11:18:07.989Z,2.0
2022-08-09T11:19:10.611Z,2.4
2022-08-09T11:20:22.080Z,2.0
2022-08-09T11:21:11.076Z,1.9
2022-08-09T11:22:24.542Z,2.4
2022-08-09T11:23:12.299Z,2.1
2022-08-09T11:24:13.738Z,2.1
2022-08-09T11:25:14.573Z,2.3
2022-08-09T11:26:15.360Z,2.3
2022-08-09T11:27:16.957Z,1.8
2022-08-09T11:28:30.849Z,1.5
2022-08-09T11:29:18.194Z,1.9
2022-08-09T11:30:32.049Z,1.9
2022-08-09T11:31:36.628Z,2.2
2022-08-09T11:32:22.988Z,1.9
2022-08-09T11:34:37.937Z,2.1
2022-08-09T11:35:49.159Z,2.1
2022-08-09T11:36:40.134Z,1.7
2022-08-09T11:37:41.577Z,2.0
2022-08-09T11:38:42.336Z,1.7
2022-08-09T11:39:43.969Z,1.7
2022-08-09T11:40:44.553Z,1.8
2022-08-09T11:41:45.285Z,1.6
2022-08-09T11:42:45.839Z,1.9
2022-08-09T11:43:46.443Z,1.4
2022-08-09T11:44:47.501Z,1.9
2022-08-09T11:45:48.106Z,2.0
2022-08-09T11:46:48.728Z,1.7
2022-08-09T11:47:49.331Z,1.8
2022-08-09T11:48:49.933Z,2.1
2022-08-09T11:50:53.453Z,1.7
2022-08-09T11:50:57.034Z,2.0
2022-08-09T11:53:00.573Z,1.5
2022-08-09T11:53:15.497Z,1.6
2022-08-09T11:53:59.196Z,1.7
2022-08-09T11:54:58.528Z,1.8
2022-08-09T11:56:02.856Z,1.8
2022-08-09T11:57:00.731Z,2.1
2022-08-09T11:58:05.905Z,2.0
2022-08-09T11:59:03.275Z,1.6
2022-08-09T12:00:03.943Z,1.7
2022-08-09T12:01:08.778Z,1.6
2022-08-09T12:02:34.517Z,1.9
2022-08-09T12:03:40.980Z,2.0
2022-08-09T12:04:10.096Z,1.7
2022-08-09T12:05:17.838Z,1.9
2022-08-09T12:06:12.267Z,1.6
2022-08-09T12:07:14.334Z,1.9
2022-08-09T12:08:21.819Z,1.7
2022-08-09T12:09:19.303Z,1.4
2022-08-09T12:10:38.402Z,1.7
2022-08-09T12:11:18.290Z,1.8
2022-08-09T12:12:28.561Z,1.8
2022-08-09T12:14:07.916Z,2.1
2022-08-09T12:14:36.970Z,1.8
2022-08-09T12:15:48.921Z,1.7
2022-08-09T12:16:30.317Z,1.8
2022-08-09T12:17:34.636Z,2.0
2022-08-09T12:18:31.052Z,1.8
2022-08-09T12:19:30.093Z,1.6
2022-08-09T12:20:30.700Z,1.9
2022-08-09T12:21:38.165Z,1.4
2022-08-09T12:22:33.673Z,1.5
2022-08-09T12:23:56.611Z,1.9
2022-08-09T12:24:35.994Z,1.8
2022-08-09T12:25:38.351Z,1.4
2022-08-09T12:26:39.190Z,1.8
2022-08-09T12:29:11.994Z,1.5
2022-08-09T12:29:15.214Z,1.4
2022-08-09T12:29:52.603Z,1.9
2022-08-09T12:30:43.706Z,1.8
2022-08-09T12:31:59.086Z,1.6
2022-08-09T12:32:48.330Z,1.5
2022-08-09T12:33:59.054Z,1.8
2022-08-09T12:34:48.412Z,1.7
2022-08-09T12:35:49.019Z,1.7
2022-08-09T12:36:49.638Z,1.6
2022-08-09T12:37:51.976Z,1.8
2022-08-09T12:38:52.836Z,1.7
2022-08-09T12:39:53.441Z,1.7
2022-08-09T12:40:54.048Z,1.6
2022-08-09T12:41:55.061Z,1.5
2022-08-09T12:42:55.695Z,1.9
2022-08-09T12:44:05.746Z,1.8
2022-08-09T12:44:59.447Z,1.6
2022-08-09T12:46:00.608Z,1.6
2022-08-09T12:47:01.334Z,1.4
2022-08-09T12:48:02.185Z,1.9
2022-08-09T12:49:02.790Z,1.6
2022-08-09T12:50:03.393Z,1.4
2022-08-09T12:51:04.283Z,1.7
2022-08-09T12:52:04.927Z,1.7
2022-08-09T12:53:09.130Z,1.6
2022-08-09T12:54:06.153Z,1.9
2022-08-09T12:56:14.046Z,1.5
2022-08-09T12:56:16.241Z,1.8
2022-08-09T12:57:10.467Z,1.8
2022-08-09T12:58:11.682Z,1.7
2022-08-09T12:59:14.043Z,1.5
2022-08-09T13:00:14.269Z,1.5
2022-08-09T13:01:15.281Z,1.6
2022-08-09T13:02:16.803Z,1.4
2022-08-09T13:03:20.715Z,1.5
2022-08-09T13:04:36.471Z,1.9
2022-08-09T13:05:20.625Z,1.8
2022-08-09T13:06:22.226Z,1.7
2022-08-09T13:07:40.958Z,1.4
2022-08-09T13:08:40.266Z,1.6
2022-08-09T13:09:25.044Z,1.2
2022-08-09T13:10:27.026Z,1.3
2022-08-09T13:11:27.268Z,1.4
2022-08-09T13:12:27.881Z,1.6
2022-08-09T13:13:28.615Z,1.4
2022-08-09T13:14:41.897Z,1.4
2022-08-09T13:15:33.981Z,1.7
2022-08-09T13:16:33.408Z,1.4
2022-08-09T13:18:02.621Z,1.7
2022-08-09T13:18:35.731Z,1.6
2022-08-09T13:20:10.728Z,1.6
2022-08-09T13:21:04.045Z,1.7
2022-08-09T13:22:37.347Z,1.7
2022-08-09T13:23:01.573Z,1.4
2022-08-09T13:24:15.815Z,1.4
2022-08-09T13:24:53.872Z,1.7
2022-08-09T13:25:54.669Z,1.5
2022-08-09T13:26:49.712Z,1.7
2022-08-09T13:27:56.250Z,1.7
2022-08-09T13:28:50.713Z,1.4
2022-08-09T13:30:04.175Z,1.5
2022-08-09T13:32:13.951Z,1.3
2022-08-09T13:32:19.414Z,1.5
2022-08-09T13:32:55.425Z,1.5
2022-08-09T13:33:56.032Z,1.5
2022-08-09T13:34:56.635Z,1.4
2022-08-09T13:36:39.106Z,1.4
2022-08-09T13:36:58.836Z,1.3
2022-08-09T13:37:59.743Z,1.5
2022-08-09T13:39:31.064Z,1.4
2022-08-09T13:41:54.256Z,1.7
2022-08-09T13:41:55.281Z,1.6
2022-08-09T13:42:05.418Z,1.4
2022-08-09T13:43:09.519Z,1.3
2022-08-09T13:44:08.350Z,1.4
2022-08-09T13:45:12.219Z,1.6
2022-08-09T13:47:16.422Z,1.6
2022-08-09T13:47:27.326Z,1.5
2022-08-09T13:48:14.601Z,1.3
2022-08-09T13:49:18.488Z,1.6
2022-08-09T13:50:29.953Z,1.6
2022-08-09T13:51:16.664Z,1.6
2022-08-09T13:52:18.360Z,1.3
2022-08-09T13:53:17.887Z,1.4
2022-08-09T13:54:18.998Z,1.5
2022-08-09T13:55:21.036Z,1.7
2022-08-09T13:56:21.763Z,1.8
2022-08-09T13:57:37.017Z,1.7
2022-08-09T13:58:23.960Z,1.5
2022-08-09T13:59:25.600Z,1.7
2022-08-09T14:00:27.316Z,1.3
2022-08-09T14:01:56.764Z,1.7
2022-08-09T14:02:29.415Z,1.4
2022-08-09T14:04:01.635Z,1.5
2022-08-09T14:04:31.671Z,1.6
2022-08-09T14:05:56.503Z,1.3
2022-08-09T14:06:34.248Z,1.3
2022-08-09T14:07:41.921Z,0.9